sensor_id;sensor_type;location;lat;lon;timestamp;temperature;humidity
63313;DHT22;49442;45.640;13.812;2023-06-26T00:00:29;24.10;89.40
63313;DHT22;49442;45.640;13.812;2023-06-26T00:02:55;24.10;89.30
63313;DHT22;49442;45.640;13.812;2023-06-26T00:05:21;24.10;89.50
63313;DHT22;49442;45.640;13.812;2023-06-26T00:07:47;24.10;89.50
63313;DHT22;49442;45.640;13.812;2023-06-26T00:10:12;24.10;89.40
63313;DHT22;49442;45.640;13.812;2023-06-26T00:12:38;24.10;89.30
63313;DHT22;49442;45.640;13.812;2023-06-26T00:15:04;24.10;89.30
63313;DHT22;49442;45.640;13.812;2023-06-26T00:17:30;24.00;89.20
63313;DHT22;49442;45.640;13.812;2023-06-26T00:19:55;24.00;89.20
63313;DHT22;49442;45.640;13.812;2023-06-26T00:22:21;24.00;89.40
63313;DHT22;49442;45.640;13.812;2023-06-26T00:24:47;24.00;89.10
63313;DHT22;49442;45.640;13.812;2023-06-26T00:27:13;24.00;89.20
63313;DHT22;49442;45.640;13.812;2023-06-26T00:29:39;24.00;89.20
63313;DHT22;49442;45.640;13.812;2023-06-26T00:32:05;23.90;89.10
63313;DHT22;49442;45.640;13.812;2023-06-26T00:34:31;23.90;89.30
63313;DHT22;49442;45.640;13.812;2023-06-26T00:36:57;23.90;89.50
63313;DHT22;49442;45.640;13.812;2023-06-26T00:39:22;23.90;89.10
63313;DHT22;49442;45.640;13.812;2023-06-26T00:41:51;23.90;89.20
63313;DHT22;49442;45.640;13.812;2023-06-26T00:44:19;23.90;89.40
63313;DHT22;49442;45.640;13.812;2023-06-26T00:46:45;23.90;89.20
63313;DHT22;49442;45.640;13.812;2023-06-26T00:49:11;23.90;89.20
63313;DHT22;49442;45.640;13.812;2023-06-26T00:51:37;23.90;89.10
63313;DHT22;49442;45.640;13.812;2023-06-26T00:54:03;23.90;89.30
63313;DHT22;49442;45.640;13.812;2023-06-26T00:56:30;23.90;89.30
63313;DHT22;49442;45.640;13.812;2023-06-26T00:58:57;23.90;89.10
63313;DHT22;49442;45.640;13.812;2023-06-26T01:01:22;23.80;89.20
63313;DHT22;49442;45.640;13.812;2023-06-26T01:03:51;23.80;89.20
63313;DHT22;49442;45.640;13.812;2023-06-26T01:06:20;23.80;89.30
63313;DHT22;49442;45.640;13.812;2023-06-26T01:08:47;23.80;89.20
63313;DHT22;49442;45.640;13.812;2023-06-26T01:11:14;23.80;89.00
63313;DHT22;49442;45.640;13.812;2023-06-26T01:13:42;23.80;89.10
63313;DHT22;49442;45.640;13.812;2023-06-26T01:16:09;23.80;90.00
63313;DHT22;49442;45.640;13.812;2023-06-26T01:18:37;23.80;89.50
63313;DHT22;49442;45.640;13.812;2023-06-26T01:21:09;23.80;89.30
63313;DHT22;49442;45.640;13.812;2023-06-26T01:26:31;23.80;89.70
63313;DHT22;49442;45.640;13.812;2023-06-26T01:29:02;23.70;89.80
63313;DHT22;49442;45.640;13.812;2023-06-26T01:31:29;23.70;89.80
63313;DHT22;49442;45.640;13.812;2023-06-26T01:33:59;23.70;89.90
63313;DHT22;49442;45.640;13.812;2023-06-26T01:36:26;23.70;90.00
63313;DHT22;49442;45.640;13.812;2023-06-26T01:38:52;23.60;90.10
63313;DHT22;49442;45.640;13.812;2023-06-26T01:41:18;23.60;90.10
63313;DHT22;49442;45.640;13.812;2023-06-26T01:49:16;23.50;90.10
63313;DHT22;49442;45.640;13.812;2023-06-26T01:52:03;23.60;90.40
63313;DHT22;49442;45.640;13.812;2023-06-26T01:54:39;23.50;90.20
63313;DHT22;49442;45.640;13.812;2023-06-26T01:57:08;23.50;90.20
63313;DHT22;49442;45.640;13.812;2023-06-26T01:59:35;23.50;90.10
63313;DHT22;49442;45.640;13.812;2023-06-26T02:02:02;23.50;90.10
63313;DHT22;49442;45.640;13.812;2023-06-26T02:04:32;23.50;90.20
63313;DHT22;49442;45.640;13.812;2023-06-26T02:06:57;23.50;90.30
63313;DHT22;49442;45.640;13.812;2023-06-26T02:09:23;23.50;90.20
63313;DHT22;49442;45.640;13.812;2023-06-26T02:11:49;23.50;90.30
63313;DHT22;49442;45.640;13.812;2023-06-26T02:14:14;23.50;90.50
63313;DHT22;49442;45.640;13.812;2023-06-26T02:16:40;23.50;90.30
63313;DHT22;49442;45.640;13.812;2023-06-26T02:19:05;23.50;90.40
63313;DHT22;49442;45.640;13.812;2023-06-26T02:21:31;23.50;90.50
63313;DHT22;49442;45.640;13.812;2023-06-26T02:23:57;23.50;90.60
63313;DHT22;49442;45.640;13.812;2023-06-26T02:26:22;23.50;90.50
63313;DHT22;49442;45.640;13.812;2023-06-26T02:28:48;23.50;90.30
63313;DHT22;49442;45.640;13.812;2023-06-26T02:31:14;23.50;90.40
63313;DHT22;49442;45.640;13.812;2023-06-26T02:33:41;23.50;90.40
63313;DHT22;49442;45.640;13.812;2023-06-26T02:36:07;23.50;90.50
63313;DHT22;49442;45.640;13.812;2023-06-26T02:38:32;23.50;90.30
63313;DHT22;49442;45.640;13.812;2023-06-26T02:40:58;23.50;90.30
63313;DHT22;49442;45.640;13.812;2023-06-26T02:43:24;23.50;90.30
63313;DHT22;49442;45.640;13.812;2023-06-26T02:45:49;23.50;90.40
63313;DHT22;49442;45.640;13.812;2023-06-26T02:48:15;23.50;90.50
63313;DHT22;49442;45.640;13.812;2023-06-26T02:50:41;23.50;90.30
63313;DHT22;49442;45.640;13.812;2023-06-26T02:53:06;23.50;90.40
63313;DHT22;49442;45.640;13.812;2023-06-26T02:55:34;23.50;90.50
63313;DHT22;49442;45.640;13.812;2023-06-26T02:58:00;23.40;90.60
63313;DHT22;49442;45.640;13.812;2023-06-26T03:00:25;23.40;90.60
63313;DHT22;49442;45.640;13.812;2023-06-26T03:02:51;23.40;90.50
63313;DHT22;49442;45.640;13.812;2023-06-26T03:05:17;23.40;90.50
63313;DHT22;49442;45.640;13.812;2023-06-26T03:07:42;23.30;90.50
63313;DHT22;49442;45.640;13.812;2023-06-26T03:10:08;23.30;90.60
63313;DHT22;49442;45.640;13.812;2023-06-26T03:12:34;23.30;90.60
63313;DHT22;49442;45.640;13.812;2023-06-26T03:14:59;23.30;90.60
63313;DHT22;49442;45.640;13.812;2023-06-26T03:17:25;23.30;90.70
63313;DHT22;49442;45.640;13.812;2023-06-26T03:19:51;23.30;90.70
63313;DHT22;49442;45.640;13.812;2023-06-26T03:22:16;23.30;90.80
63313;DHT22;49442;45.640;13.812;2023-06-26T03:24:44;23.30;90.80
63313;DHT22;49442;45.640;13.812;2023-06-26T03:27:10;23.30;90.60
63313;DHT22;49442;45.640;13.812;2023-06-26T03:29:36;23.30;90.60
63313;DHT22;49442;45.640;13.812;2023-06-26T03:32:02;23.20;90.70
63313;DHT22;49442;45.640;13.812;2023-06-26T03:34:27;23.30;90.70
63313;DHT22;49442;45.640;13.812;2023-06-26T03:36:53;23.30;90.50
63313;DHT22;49442;45.640;13.812;2023-06-26T03:39:19;23.30;90.70
63313;DHT22;49442;45.640;13.812;2023-06-26T03:41:44;23.30;90.60
63313;DHT22;49442;45.640;13.812;2023-06-26T03:44:10;23.40;90.30
63313;DHT22;49442;45.640;13.812;2023-06-26T03:46:36;23.40;90.40
63313;DHT22;49442;45.640;13.812;2023-06-26T03:49:01;23.40;90.30
63313;DHT22;49442;45.640;13.812;2023-06-26T03:51:27;23.40;90.20
63313;DHT22;49442;45.640;13.812;2023-06-26T03:53:53;23.40;90.30
63313;DHT22;49442;45.640;13.812;2023-06-26T03:56:18;23.40;90.60
63313;DHT22;49442;45.640;13.812;2023-06-26T03:58:44;23.40;90.30
63313;DHT22;49442;45.640;13.812;2023-06-26T04:01:10;23.30;90.00
63313;DHT22;49442;45.640;13.812;2023-06-26T04:03:35;23.30;90.10
63313;DHT22;49442;45.640;13.812;2023-06-26T04:06:01;23.30;90.20
63313;DHT22;49442;45.640;13.812;2023-06-26T04:08:27;23.30;90.20
63313;DHT22;49442;45.640;13.812;2023-06-26T04:10:52;23.20;90.10
63313;DHT22;49442;45.640;13.812;2023-06-26T04:13:19;23.20;90.20
63313;DHT22;49442;45.640;13.812;2023-06-26T04:15:44;23.20;90.20
63313;DHT22;49442;45.640;13.812;2023-06-26T04:18:10;23.20;90.50
63313;DHT22;49442;45.640;13.812;2023-06-26T04:20:39;23.20;90.30
63313;DHT22;49442;45.640;13.812;2023-06-26T04:23:06;23.20;90.40
63313;DHT22;49442;45.640;13.812;2023-06-26T04:25:32;23.20;90.50
63313;DHT22;49442;45.640;13.812;2023-06-26T04:27:57;23.10;90.40
63313;DHT22;49442;45.640;13.812;2023-06-26T04:30:23;23.20;90.90
63313;DHT22;49442;45.640;13.812;2023-06-26T04:32:49;23.20;90.60
63313;DHT22;49442;45.640;13.812;2023-06-26T04:35:14;23.20;90.50
63313;DHT22;49442;45.640;13.812;2023-06-26T04:37:40;23.20;90.50
63313;DHT22;49442;45.640;13.812;2023-06-26T04:40:06;23.20;90.40
63313;DHT22;49442;45.640;13.812;2023-06-26T04:42:35;23.20;90.70
63313;DHT22;49442;45.640;13.812;2023-06-26T04:45:00;23.30;90.50
63313;DHT22;49442;45.640;13.812;2023-06-26T04:47:28;23.30;90.70
63313;DHT22;49442;45.640;13.812;2023-06-26T04:49:53;23.30;90.70
63313;DHT22;49442;45.640;13.812;2023-06-26T04:52:20;23.30;91.50
63313;DHT22;49442;45.640;13.812;2023-06-26T04:54:46;23.30;91.80
63313;DHT22;49442;45.640;13.812;2023-06-26T04:57:12;23.30;92.10
63313;DHT22;49442;45.640;13.812;2023-06-26T04:59:37;23.30;92.20
63313;DHT22;49442;45.640;13.812;2023-06-26T05:02:03;23.30;91.90
63313;DHT22;49442;45.640;13.812;2023-06-26T05:04:33;23.30;91.90
63313;DHT22;49442;45.640;13.812;2023-06-26T05:06:59;23.40;92.10
63313;DHT22;49442;45.640;13.812;2023-06-26T05:09:25;23.30;91.90
63313;DHT22;49442;45.640;13.812;2023-06-26T05:11:51;23.40;92.50
63313;DHT22;49442;45.640;13.812;2023-06-26T05:14:16;23.30;92.80
63313;DHT22;49442;45.640;13.812;2023-06-26T05:16:42;23.30;92.20
63313;DHT22;49442;45.640;13.812;2023-06-26T05:19:08;23.30;93.30
63313;DHT22;49442;45.640;13.812;2023-06-26T05:21:34;23.30;92.80
63313;DHT22;49442;45.640;13.812;2023-06-26T05:24:02;23.30;91.70
63313;DHT22;49442;45.640;13.812;2023-06-26T05:26:28;23.40;92.60
63313;DHT22;49442;45.640;13.812;2023-06-26T05:28:54;23.50;92.90
63313;DHT22;49442;45.640;13.812;2023-06-26T05:31:20;23.50;92.10
63313;DHT22;49442;45.640;13.812;2023-06-26T05:33:46;23.60;92.70
63313;DHT22;49442;45.640;13.812;2023-06-26T05:36:16;23.60;92.60
63313;DHT22;49442;45.640;13.812;2023-06-26T05:38:42;23.50;92.70
63313;DHT22;49442;45.640;13.812;2023-06-26T05:41:08;23.60;93.20
63313;DHT22;49442;45.640;13.812;2023-06-26T05:43:34;23.70;92.60
63313;DHT22;49442;45.640;13.812;2023-06-26T05:46:00;23.70;93.40
63313;DHT22;49442;45.640;13.812;2023-06-26T05:48:25;23.90;92.90
63313;DHT22;49442;45.640;13.812;2023-06-26T05:50:51;23.90;92.70
63313;DHT22;49442;45.640;13.812;2023-06-26T05:53:17;23.90;92.50
63313;DHT22;49442;45.640;13.812;2023-06-26T05:55:43;23.90;92.70
63313;DHT22;49442;45.640;13.812;2023-06-26T05:58:10;23.90;93.00
63313;DHT22;49442;45.640;13.812;2023-06-26T06:00:38;23.80;92.90
63313;DHT22;49442;45.640;13.812;2023-06-26T06:03:04;23.90;92.90
63313;DHT22;49442;45.640;13.812;2023-06-26T06:05:29;23.90;93.20
63313;DHT22;49442;45.640;13.812;2023-06-26T06:07:55;23.90;94.20
63313;DHT22;49442;45.640;13.812;2023-06-26T06:10:21;23.90;93.70
63313;DHT22;49442;45.640;13.812;2023-06-26T06:12:47;24.00;94.00
63313;DHT22;49442;45.640;13.812;2023-06-26T06:15:12;24.00;92.60
63313;DHT22;49442;45.640;13.812;2023-06-26T06:17:38;23.90;92.30
63313;DHT22;49442;45.640;13.812;2023-06-26T06:20:04;24.00;93.00
63313;DHT22;49442;45.640;13.812;2023-06-26T06:22:30;24.10;93.10
63313;DHT22;49442;45.640;13.812;2023-06-26T06:24:56;24.30;93.80
63313;DHT22;49442;45.640;13.812;2023-06-26T06:27:21;24.40;93.30
63313;DHT22;49442;45.640;13.812;2023-06-26T06:29:47;24.40;93.40
63313;DHT22;49442;45.640;13.812;2023-06-26T06:32:13;24.50;92.40
63313;DHT22;49442;45.640;13.812;2023-06-26T06:34:38;24.50;92.40
63313;DHT22;49442;45.640;13.812;2023-06-26T06:37:04;24.60;92.20
63313;DHT22;49442;45.640;13.812;2023-06-26T06:39:30;24.60;92.00
63313;DHT22;49442;45.640;13.812;2023-06-26T06:41:55;24.70;93.00
63313;DHT22;49442;45.640;13.812;2023-06-26T06:44:21;24.80;92.40
63313;DHT22;49442;45.640;13.812;2023-06-26T06:46:47;24.90;93.00
63313;DHT22;49442;45.640;13.812;2023-06-26T06:49:13;24.90;92.50
63313;DHT22;49442;45.640;13.812;2023-06-26T06:51:38;24.90;92.80
63313;DHT22;49442;45.640;13.812;2023-06-26T06:54:04;25.00;92.90
63313;DHT22;49442;45.640;13.812;2023-06-26T06:56:30;25.00;92.10
63313;DHT22;49442;45.640;13.812;2023-06-26T06:58:55;25.10;92.90
63313;DHT22;49442;45.640;13.812;2023-06-26T07:01:21;25.30;92.60
63313;DHT22;49442;45.640;13.812;2023-06-26T07:03:47;25.30;91.20
63313;DHT22;49442;45.640;13.812;2023-06-26T07:06:12;25.40;91.10
63313;DHT22;49442;45.640;13.812;2023-06-26T07:08:38;25.40;91.30
63313;DHT22;49442;45.640;13.812;2023-06-26T07:11:04;25.50;91.80
63313;DHT22;49442;45.640;13.812;2023-06-26T07:13:30;25.50;92.00
63313;DHT22;49442;45.640;13.812;2023-06-26T07:15:55;25.60;92.70
63313;DHT22;49442;45.640;13.812;2023-06-26T07:18:21;25.50;90.40
63313;DHT22;49442;45.640;13.812;2023-06-26T07:20:46;25.60;91.20
63313;DHT22;49442;45.640;13.812;2023-06-26T07:23:12;25.60;91.50
63313;DHT22;49442;45.640;13.812;2023-06-26T07:25:38;25.70;91.80
63313;DHT22;49442;45.640;13.812;2023-06-26T07:28:10;25.60;91.40
63313;DHT22;49442;45.640;13.812;2023-06-26T07:30:36;25.80;91.20
63313;DHT22;49442;45.640;13.812;2023-06-26T07:33:01;25.90;91.80
63313;DHT22;49442;45.640;13.812;2023-06-26T07:35:27;26.00;91.80
63313;DHT22;49442;45.640;13.812;2023-06-26T07:37:53;26.20;93.00
63313;DHT22;49442;45.640;13.812;2023-06-26T07:40:18;26.30;91.30
63313;DHT22;49442;45.640;13.812;2023-06-26T07:42:44;26.40;92.40
63313;DHT22;49442;45.640;13.812;2023-06-26T07:45:11;26.50;92.90
63313;DHT22;49442;45.640;13.812;2023-06-26T07:47:40;26.50;94.00
63313;DHT22;49442;45.640;13.812;2023-06-26T07:50:07;26.60;93.50
63313;DHT22;49442;45.640;13.812;2023-06-26T07:52:32;26.60;92.70
63313;DHT22;49442;45.640;13.812;2023-06-26T07:54:58;26.60;92.50
63313;DHT22;49442;45.640;13.812;2023-06-26T07:57:24;26.60;92.80
63313;DHT22;49442;45.640;13.812;2023-06-26T07:59:50;26.70;93.10
63313;DHT22;49442;45.640;13.812;2023-06-26T08:02:16;26.70;93.20
63313;DHT22;49442;45.640;13.812;2023-06-26T08:04:43;26.70;93.80
63313;DHT22;49442;45.640;13.812;2023-06-26T08:07:09;26.70;93.50
63313;DHT22;49442;45.640;13.812;2023-06-26T08:09:34;26.70;92.90
63313;DHT22;49442;45.640;13.812;2023-06-26T08:12:00;26.70;92.90
63313;DHT22;49442;45.640;13.812;2023-06-26T08:14:26;26.70;93.30
63313;DHT22;49442;45.640;13.812;2023-06-26T08:16:52;26.80;93.50
63313;DHT22;49442;45.640;13.812;2023-06-26T08:19:18;26.80;92.80
63313;DHT22;49442;45.640;13.812;2023-06-26T08:21:44;26.80;92.70
63313;DHT22;49442;45.640;13.812;2023-06-26T08:24:11;26.80;91.60
63313;DHT22;49442;45.640;13.812;2023-06-26T08:26:38;26.80;92.30
63313;DHT22;49442;45.640;13.812;2023-06-26T08:29:04;26.70;91.30
63313;DHT22;49442;45.640;13.812;2023-06-26T08:31:34;26.70;90.80
63313;DHT22;49442;45.640;13.812;2023-06-26T08:34:00;26.70;91.60
63313;DHT22;49442;45.640;13.812;2023-06-26T08:36:26;26.70;90.90
63313;DHT22;49442;45.640;13.812;2023-06-26T08:38:51;26.70;90.80
63313;DHT22;49442;45.640;13.812;2023-06-26T08:41:17;26.80;90.90
63313;DHT22;49442;45.640;13.812;2023-06-26T08:43:43;26.80;90.70
63313;DHT22;49442;45.640;13.812;2023-06-26T08:46:08;26.80;91.20
63313;DHT22;49442;45.640;13.812;2023-06-26T08:48:35;26.90;91.00
63313;DHT22;49442;45.640;13.812;2023-06-26T08:51:13;26.90;91.20
63313;DHT22;49442;45.640;13.812;2023-06-26T08:53:58;26.90;91.10
63313;DHT22;49442;45.640;13.812;2023-06-26T08:56:27;26.90;91.30
63313;DHT22;49442;45.640;13.812;2023-06-26T08:58:54;27.00;90.50
63313;DHT22;49442;45.640;13.812;2023-06-26T09:01:21;27.00;91.20
63313;DHT22;49442;45.640;13.812;2023-06-26T09:03:46;27.10;90.70
63313;DHT22;49442;45.640;13.812;2023-06-26T09:06:12;27.10;90.20
63313;DHT22;49442;45.640;13.812;2023-06-26T09:08:38;27.00;91.00
63313;DHT22;49442;45.640;13.812;2023-06-26T09:11:03;27.00;90.70
63313;DHT22;49442;45.640;13.812;2023-06-26T09:13:30;27.20;90.30
63313;DHT22;49442;45.640;13.812;2023-06-26T09:15:56;27.30;89.60
63313;DHT22;49442;45.640;13.812;2023-06-26T09:18:22;27.40;90.00
63313;DHT22;49442;45.640;13.812;2023-06-26T09:20:48;27.40;90.00
63313;DHT22;49442;45.640;13.812;2023-06-26T09:23:15;27.50;89.00
63313;DHT22;49442;45.640;13.812;2023-06-26T09:25:41;27.30;87.90
63313;DHT22;49442;45.640;13.812;2023-06-26T09:28:09;27.40;89.10
63313;DHT22;49442;45.640;13.812;2023-06-26T09:30:35;27.50;89.10
63313;DHT22;49442;45.640;13.812;2023-06-26T09:33:20;27.60;89.90
63313;DHT22;49442;45.640;13.812;2023-06-26T09:35:47;27.60;89.90
63313;DHT22;49442;45.640;13.812;2023-06-26T09:38:13;27.70;88.70
63313;DHT22;49442;45.640;13.812;2023-06-26T09:40:40;27.70;88.80
63313;DHT22;49442;45.640;13.812;2023-06-26T09:43:07;27.80;88.20
63313;DHT22;49442;45.640;13.812;2023-06-26T09:45:34;27.70;87.90
63313;DHT22;49442;45.640;13.812;2023-06-26T09:48:05;27.80;90.10
63313;DHT22;49442;45.640;13.812;2023-06-26T09:50:34;27.70;88.10
63313;DHT22;49442;45.640;13.812;2023-06-26T09:53:13;27.70;89.00
63313;DHT22;49442;45.640;13.812;2023-06-26T09:55:40;27.80;90.40
63313;DHT22;49442;45.640;13.812;2023-06-26T09:58:11;27.80;89.90
63313;DHT22;49442;45.640;13.812;2023-06-26T10:00:40;27.90;89.20
63313;DHT22;49442;45.640;13.812;2023-06-26T10:03:07;28.00;89.70
63313;DHT22;49442;45.640;13.812;2023-06-26T10:05:33;28.00;87.00
63313;DHT22;49442;45.640;13.812;2023-06-26T10:07:59;28.10;86.30
63313;DHT22;49442;45.640;13.812;2023-06-26T10:10:27;28.00;87.60
63313;DHT22;49442;45.640;13.812;2023-06-26T10:12:59;27.90;88.40
63313;DHT22;49442;45.640;13.812;2023-06-26T10:15:25;27.80;86.80
63313;DHT22;49442;45.640;13.812;2023-06-26T10:17:56;28.00;86.30
63313;DHT22;49442;45.640;13.812;2023-06-26T10:20:23;27.90;85.20
63313;DHT22;49442;45.640;13.812;2023-06-26T10:22:49;27.70;84.10
63313;DHT22;49442;45.640;13.812;2023-06-26T10:25:18;27.80;86.10
63313;DHT22;49442;45.640;13.812;2023-06-26T10:27:51;27.90;85.50
63313;DHT22;49442;45.640;13.812;2023-06-26T10:30:20;28.00;85.90
63313;DHT22;49442;45.640;13.812;2023-06-26T10:32:48;28.20;86.50
63313;DHT22;49442;45.640;13.812;2023-06-26T10:35:14;28.20;84.40
63313;DHT22;49442;45.640;13.812;2023-06-26T10:37:48;28.20;85.10
63313;DHT22;49442;45.640;13.812;2023-06-26T10:40:20;28.00;83.60
63313;DHT22;49442;45.640;13.812;2023-06-26T10:42:46;28.10;84.20
63313;DHT22;49442;45.640;13.812;2023-06-26T10:45:19;28.10;85.00
63313;DHT22;49442;45.640;13.812;2023-06-26T10:47:48;28.20;85.30
63313;DHT22;49442;45.640;13.812;2023-06-26T10:52:46;28.40;85.10
63313;DHT22;49442;45.640;13.812;2023-06-26T10:55:13;28.30;84.70
63313;DHT22;49442;45.640;13.812;2023-06-26T10:57:39;28.30;84.30
63313;DHT22;49442;45.640;13.812;2023-06-26T11:00:09;28.40;85.60
63313;DHT22;49442;45.640;13.812;2023-06-26T11:02:54;28.40;85.90
63313;DHT22;49442;45.640;13.812;2023-06-26T11:05:27;28.40;81.50
63313;DHT22;49442;45.640;13.812;2023-06-26T11:08:07;28.40;86.20
63313;DHT22;49442;45.640;13.812;2023-06-26T11:10:53;28.40;85.10
63313;DHT22;49442;45.640;13.812;2023-06-26T11:13:19;28.50;85.30
63313;DHT22;49442;45.640;13.812;2023-06-26T11:15:46;28.50;85.30
63313;DHT22;49442;45.640;13.812;2023-06-26T11:18:13;28.60;85.70
63313;DHT22;49442;45.640;13.812;2023-06-26T11:20:40;28.50;84.30
63313;DHT22;49442;45.640;13.812;2023-06-26T11:23:09;28.60;86.90
63313;DHT22;49442;45.640;13.812;2023-06-26T11:25:38;28.60;86.90
63313;DHT22;49442;45.640;13.812;2023-06-26T11:28:05;28.60;85.10
63313;DHT22;49442;45.640;13.812;2023-06-26T11:30:31;28.70;87.40
63313;DHT22;49442;45.640;13.812;2023-06-26T11:35:29;28.80;87.40
63313;DHT22;49442;45.640;13.812;2023-06-26T11:38:03;28.80;84.70
63313;DHT22;49442;45.640;13.812;2023-06-26T11:40:35;28.80;86.40
63313;DHT22;49442;45.640;13.812;2023-06-26T11:43:02;28.80;86.60
63313;DHT22;49442;45.640;13.812;2023-06-26T11:45:29;28.90;86.90
63313;DHT22;49442;45.640;13.812;2023-06-26T11:48:00;28.90;87.70
63313;DHT22;49442;45.640;13.812;2023-06-26T11:50:26;28.90;87.30
63313;DHT22;49442;45.640;13.812;2023-06-26T11:52:58;28.70;83.20
63313;DHT22;49442;45.640;13.812;2023-06-26T11:55:25;28.50;83.60
63313;DHT22;49442;45.640;13.812;2023-06-26T11:57:55;28.60;86.90
63313;DHT22;49442;45.640;13.812;2023-06-26T12:00:22;28.70;87.50
63313;DHT22;49442;45.640;13.812;2023-06-26T12:02:48;28.80;87.70
63313;DHT22;49442;45.640;13.812;2023-06-26T12:05:16;28.80;88.60
63313;DHT22;49442;45.640;13.812;2023-06-26T12:07:43;28.90;88.60
63313;DHT22;49442;45.640;13.812;2023-06-26T12:10:11;28.90;88.40
63313;DHT22;49442;45.640;13.812;2023-06-26T12:12:38;28.90;89.10
63313;DHT22;49442;45.640;13.812;2023-06-26T12:15:06;28.90;90.60
63313;DHT22;49442;45.640;13.812;2023-06-26T12:17:32;28.90;88.10
63313;DHT22;49442;45.640;13.812;2023-06-26T12:19:57;29.00;88.00
63313;DHT22;49442;45.640;13.812;2023-06-26T12:22:23;29.00;88.20
63313;DHT22;49442;45.640;13.812;2023-06-26T12:24:49;29.00;88.70
63313;DHT22;49442;45.640;13.812;2023-06-26T12:27:17;29.00;88.80
63313;DHT22;49442;45.640;13.812;2023-06-26T12:29:51;29.00;88.80
63313;DHT22;49442;45.640;13.812;2023-06-26T12:32:17;29.00;89.50
63313;DHT22;49442;45.640;13.812;2023-06-26T12:34:48;29.00;88.50
63313;DHT22;49442;45.640;13.812;2023-06-26T12:37:15;28.80;89.70
63313;DHT22;49442;45.640;13.812;2023-06-26T12:39:49;29.00;90.30
63313;DHT22;49442;45.640;13.812;2023-06-26T12:42:19;29.00;90.80
63313;DHT22;49442;45.640;13.812;2023-06-26T12:44:45;29.10;90.00
63313;DHT22;49442;45.640;13.812;2023-06-26T12:47:12;28.90;87.60
63313;DHT22;49442;45.640;13.812;2023-06-26T12:49:40;28.80;88.70
63313;DHT22;49442;45.640;13.812;2023-06-26T12:52:10;28.60;86.80
63313;DHT22;49442;45.640;13.812;2023-06-26T12:54:40;28.70;90.10
63313;DHT22;49442;45.640;13.812;2023-06-26T12:57:07;28.80;90.30
63313;DHT22;49442;45.640;13.812;2023-06-26T12:59:36;28.80;88.90
63313;DHT22;49442;45.640;13.812;2023-06-26T13:02:02;29.00;86.90
63313;DHT22;49442;45.640;13.812;2023-06-26T13:04:29;29.00;87.80
63313;DHT22;49442;45.640;13.812;2023-06-26T13:06:55;29.00;87.60
63313;DHT22;49442;45.640;13.812;2023-06-26T13:09:22;29.00;86.80
63313;DHT22;49442;45.640;13.812;2023-06-26T13:11:49;29.10;90.30
63313;DHT22;49442;45.640;13.812;2023-06-26T13:14:15;29.20;89.80
63313;DHT22;49442;45.640;13.812;2023-06-26T13:16:41;29.20;89.30
63313;DHT22;49442;45.640;13.812;2023-06-26T13:19:06;29.20;90.70
63313;DHT22;49442;45.640;13.812;2023-06-26T13:21:33;29.20;89.50
63313;DHT22;49442;45.640;13.812;2023-06-26T13:23:59;29.20;90.00
63313;DHT22;49442;45.640;13.812;2023-06-26T13:26:25;29.20;90.30
63313;DHT22;49442;45.640;13.812;2023-06-26T13:28:52;29.30;91.00
63313;DHT22;49442;45.640;13.812;2023-06-26T13:31:18;29.20;88.50
63313;DHT22;49442;45.640;13.812;2023-06-26T13:33:44;29.20;89.20
63313;DHT22;49442;45.640;13.812;2023-06-26T13:36:11;29.20;86.90
63313;DHT22;49442;45.640;13.812;2023-06-26T13:38:37;29.10;88.50
63313;DHT22;49442;45.640;13.812;2023-06-26T13:41:03;29.00;88.10
63313;DHT22;49442;45.640;13.812;2023-06-26T13:43:29;28.90;88.80
63313;DHT22;49442;45.640;13.812;2023-06-26T13:45:55;28.90;88.20
63313;DHT22;49442;45.640;13.812;2023-06-26T13:48:22;28.60;86.00
63313;DHT22;49442;45.640;13.812;2023-06-26T13:50:50;28.70;89.10
63313;DHT22;49442;45.640;13.812;2023-06-26T13:53:16;28.80;84.10
63313;DHT22;49442;45.640;13.812;2023-06-26T13:55:42;28.80;86.70
63313;DHT22;49442;45.640;13.812;2023-06-26T13:58:08;29.00;88.30
63313;DHT22;49442;45.640;13.812;2023-06-26T14:00:35;29.10;87.80
63313;DHT22;49442;45.640;13.812;2023-06-26T14:03:02;29.10;88.80
63313;DHT22;49442;45.640;13.812;2023-06-26T14:05:29;29.10;88.70
63313;DHT22;49442;45.640;13.812;2023-06-26T14:07:56;29.00;88.80
63313;DHT22;49442;45.640;13.812;2023-06-26T14:10:23;29.00;89.80
63313;DHT22;49442;45.640;13.812;2023-06-26T14:12:49;29.00;90.00
63313;DHT22;49442;45.640;13.812;2023-06-26T14:15:15;29.10;90.20
63313;DHT22;49442;45.640;13.812;2023-06-26T14:17:40;29.00;90.50
63313;DHT22;49442;45.640;13.812;2023-06-26T14:20:08;29.00;90.00
63313;DHT22;49442;45.640;13.812;2023-06-26T14:22:41;29.00;89.90
63313;DHT22;49442;45.640;13.812;2023-06-26T14:25:08;28.90;89.60
63313;DHT22;49442;45.640;13.812;2023-06-26T14:27:35;28.90;87.50
63313;DHT22;49442;45.640;13.812;2023-06-26T14:30:03;28.80;86.90
63313;DHT22;49442;45.640;13.812;2023-06-26T14:32:29;28.80;89.50
63313;DHT22;49442;45.640;13.812;2023-06-26T14:34:56;28.80;89.10
63313;DHT22;49442;45.640;13.812;2023-06-26T14:37:22;28.70;88.40
63313;DHT22;49442;45.640;13.812;2023-06-26T14:39:47;28.70;89.90
63313;DHT22;49442;45.640;13.812;2023-06-26T14:42:13;28.80;90.40
63313;DHT22;49442;45.640;13.812;2023-06-26T14:44:39;28.80;89.60
63313;DHT22;49442;45.640;13.812;2023-06-26T14:47:04;28.90;85.80
63313;DHT22;49442;45.640;13.812;2023-06-26T14:49:30;28.90;87.20
63313;DHT22;49442;45.640;13.812;2023-06-26T14:51:57;28.90;88.70
63313;DHT22;49442;45.640;13.812;2023-06-26T14:54:22;28.80;89.40
63313;DHT22;49442;45.640;13.812;2023-06-26T14:56:48;28.90;90.40
63313;DHT22;49442;45.640;13.812;2023-06-26T14:59:14;28.90;91.20
63313;DHT22;49442;45.640;13.812;2023-06-26T15:01:40;29.00;90.30
63313;DHT22;49442;45.640;13.812;2023-06-26T15:04:06;29.10;90.00
63313;DHT22;49442;45.640;13.812;2023-06-26T15:06:32;29.10;88.00
63313;DHT22;49442;45.640;13.812;2023-06-26T15:08:58;29.10;89.10
63313;DHT22;49442;45.640;13.812;2023-06-26T15:11:24;29.00;87.20
63313;DHT22;49442;45.640;13.812;2023-06-26T15:13:50;29.00;88.10
63313;DHT22;49442;45.640;13.812;2023-06-26T15:16:15;29.00;89.10
63313;DHT22;49442;45.640;13.812;2023-06-26T15:18:41;28.90;89.50
63313;DHT22;49442;45.640;13.812;2023-06-26T15:21:07;28.90;88.90
63313;DHT22;49442;45.640;13.812;2023-06-26T15:23:34;28.90;89.70
63313;DHT22;49442;45.640;13.812;2023-06-26T15:25:59;29.00;89.30